sensor_id;sensor_type;location;lat;lon;timestamp;temperature;humidity
64396;DHT22;50717;53.360;6.290;2023-11-21T00:00:19;8.60;99.90
64396;DHT22;50717;53.360;6.290;2023-11-21T00:02:45;10.50;99.90
64396;DHT22;50717;53.360;6.290;2023-11-21T00:05:11;10.70;99.90
64396;DHT22;50717;53.360;6.290;2023-11-21T00:07:40;8.20;99.90
64396;DHT22;50717;53.360;6.290;2023-11-21T00:10:05;11.00;99.90
64396;DHT22;50717;53.360;6.290;2023-11-21T00:12:32;10.40;99.90
64396;DHT22;50717;53.360;6.290;2023-11-21T00:14:58;10.60;99.90
64396;DHT22;50717;53.360;6.290;2023-11-21T00:17:24;8.50;99.90
64396;DHT22;50717;53.360;6.290;2023-11-21T00:19:50;9.10;99.90
64396;DHT22;50717;53.360;6.290;2023-11-21T00:22:19;11.00;99.90
64396;DHT22;50717;53.360;6.290;2023-11-21T00:24:45;10.40;99.90
64396;DHT22;50717;53.360;6.290;2023-11-21T00:27:11;10.00;99.90
64396;DHT22;50717;53.360;6.290;2023-11-21T00:29:36;9.60;99.90
64396;DHT22;50717;53.360;6.290;2023-11-21T00:32:04;8.40;99.90
64396;DHT22;50717;53.360;6.290;2023-11-21T00:34:31;8.30;99.90
64396;DHT22;50717;53.360;6.290;2023-11-21T00:36:57;11.40;99.90
64396;DHT22;50717;53.360;6.290;2023-11-21T00:39:23;8.80;99.90
64396;DHT22;50717;53.360;6.290;2023-11-21T00:41:49;10.60;99.90
64396;DHT22;50717;53.360;6.290;2023-11-21T00:44:15;9.00;99.90
64396;DHT22;50717;53.360;6.290;2023-11-21T00:46:41;9.10;99.90
64396;DHT22;50717;53.360;6.290;2023-11-21T00:49:07;12.00;99.90
64396;DHT22;50717;53.360;6.290;2023-11-21T00:51:33;11.70;99.90
64396;DHT22;50717;53.360;6.290;2023-11-21T00:53:59;9.10;99.90
64396;DHT22;50717;53.360;6.290;2023-11-21T00:56:25;9.60;99.90
64396;DHT22;50717;53.360;6.290;2023-11-21T00:58:50;8.80;99.90
64396;DHT22;50717;53.360;6.290;2023-11-21T01:01:18;11.10;99.90
64396;DHT22;50717;53.360;6.290;2023-11-21T01:03:46;10.10;99.90
64396;DHT22;50717;53.360;6.290;2023-11-21T01:06:12;8.80;99.90
64396;DHT22;50717;53.360;6.290;2023-11-21T01:08:37;9.90;99.90
64396;DHT22;50717;53.360;6.290;2023-11-21T01:11:04;8.50;99.90
64396;DHT22;50717;53.360;6.290;2023-11-21T01:13:30;9.70;99.90
64396;DHT22;50717;53.360;6.290;2023-11-21T01:15:57;9.30;99.90
64396;DHT22;50717;53.360;6.290;2023-11-21T01:18:22;9.30;99.90
64396;DHT22;50717;53.360;6.290;2023-11-21T01:20:51;9.80;99.90
64396;DHT22;50717;53.360;6.290;2023-11-21T01:23:19;11.50;99.90
64396;DHT22;50717;53.360;6.290;2023-11-21T01:25:44;8.70;99.90
64396;DHT22;50717;53.360;6.290;2023-11-21T01:28:10;11.80;99.90
64396;DHT22;50717;53.360;6.290;2023-11-21T01:30:36;10.20;99.90
64396;DHT22;50717;53.360;6.290;2023-11-21T01:33:01;8.70;99.90
64396;DHT22;50717;53.360;6.290;2023-11-21T01:35:27;9.30;99.90
64396;DHT22;50717;53.360;6.290;2023-11-21T01:37:53;10.90;99.90
64396;DHT22;50717;53.360;6.290;2023-11-21T01:40:19;8.60;99.90
64396;DHT22;50717;53.360;6.290;2023-11-21T01:42:44;8.70;99.90
64396;DHT22;50717;53.360;6.290;2023-11-21T01:45:12;11.80;99.90
64396;DHT22;50717;53.360;6.290;2023-11-21T01:47:38;11.50;99.90
64396;DHT22;50717;53.360;6.290;2023-11-21T01:50:11;11.50;99.90
64396;DHT22;50717;53.360;6.290;2023-11-21T01:52:38;11.80;99.90
64396;DHT22;50717;53.360;6.290;2023-11-21T01:55:06;11.70;99.90
64396;DHT22;50717;53.360;6.290;2023-11-21T01:57:34;11.00;99.90
64396;DHT22;50717;53.360;6.290;2023-11-21T02:00:02;8.60;99.90
64396;DHT22;50717;53.360;6.290;2023-11-21T02:02:44;10.60;99.90
64396;DHT22;50717;53.360;6.290;2023-11-21T02:05:11;11.40;99.90
64396;DHT22;50717;53.360;6.290;2023-11-21T02:07:39;10.90;99.90
64396;DHT22;50717;53.360;6.290;2023-11-21T02:10:06;10.80;99.90
64396;DHT22;50717;53.360;6.290;2023-11-21T02:12:33;10.40;99.90
64396;DHT22;50717;53.360;6.290;2023-11-21T02:15:03;9.70;99.90
64396;DHT22;50717;53.360;6.290;2023-11-21T02:17:35;8.50;99.90
64396;DHT22;50717;53.360;6.290;2023-11-21T02:20:00;10.00;99.90
64396;DHT22;50717;53.360;6.290;2023-11-21T02:22:31;8.50;99.90
64396;DHT22;50717;53.360;6.290;2023-11-21T02:24:58;9.00;99.90
64396;DHT22;50717;53.360;6.290;2023-11-21T02:27:24;8.90;99.90
64396;DHT22;50717;53.360;6.290;2023-11-21T02:29:50;8.30;99.90
64396;DHT22;50717;53.360;6.290;2023-11-21T02:32:16;9.60;99.90
64396;DHT22;50717;53.360;6.290;2023-11-21T02:34:44;8.70;99.90
64396;DHT22;50717;53.360;6.290;2023-11-21T02:37:10;10.10;99.90
64396;DHT22;50717;53.360;6.290;2023-11-21T02:39:36;8.30;99.90
64396;DHT22;50717;53.360;6.290;2023-11-21T02:42:02;9.20;99.90
64396;DHT22;50717;53.360;6.290;2023-11-21T02:44:27;11.40;99.90
64396;DHT22;50717;53.360;6.290;2023-11-21T02:46:53;10.70;99.90
64396;DHT22;50717;53.360;6.290;2023-11-21T02:49:19;11.30;99.90
64396;DHT22;50717;53.360;6.290;2023-11-21T02:51:44;10.90;99.90
64396;DHT22;50717;53.360;6.290;2023-11-21T02:54:11;9.10;99.90
64396;DHT22;50717;53.360;6.290;2023-11-21T02:56:37;10.90;99.90
64396;DHT22;50717;53.360;6.290;2023-11-21T02:59:03;11.60;99.90
64396;DHT22;50717;53.360;6.290;2023-11-21T03:01:29;8.90;99.90
64396;DHT22;50717;53.360;6.290;2023-11-21T03:03:54;8.40;99.90
64396;DHT22;50717;53.360;6.290;2023-11-21T03:06:21;8.40;99.90
64396;DHT22;50717;53.360;6.290;2023-11-21T03:08:47;8.30;99.90
64396;DHT22;50717;53.360;6.290;2023-11-21T03:11:13;9.70;99.90
64396;DHT22;50717;53.360;6.290;2023-11-21T03:13:42;8.80;99.90
64396;DHT22;50717;53.360;6.290;2023-11-21T03:16:09;9.40;99.90
64396;DHT22;50717;53.360;6.290;2023-11-21T03:18:36;10.70;99.90
64396;DHT22;50717;53.360;6.290;2023-11-21T03:21:03;10.60;99.90
64396;DHT22;50717;53.360;6.290;2023-11-21T03:23:28;9.80;99.90
64396;DHT22;50717;53.360;6.290;2023-11-21T03:25:54;8.50;99.90
64396;DHT22;50717;53.360;6.290;2023-11-21T03:28:20;10.10;99.90
64396;DHT22;50717;53.360;6.290;2023-11-21T03:30:46;9.10;99.90
64396;DHT22;50717;53.360;6.290;2023-11-21T03:33:11;11.20;99.90
64396;DHT22;50717;53.360;6.290;2023-11-21T03:35:37;8.90;99.90
64396;DHT22;50717;53.360;6.290;2023-11-21T03:38:03;8.40;99.90
64396;DHT22;50717;53.360;6.290;2023-11-21T03:40:29;9.00;99.90
64396;DHT22;50717;53.360;6.290;2023-11-21T03:42:57;11.90;99.90
64396;DHT22;50717;53.360;6.290;2023-11-21T03:45:22;8.10;99.90
64396;DHT22;50717;53.360;6.290;2023-11-21T03:47:48;10.60;99.90
64396;DHT22;50717;53.360;6.290;2023-11-21T03:50:14;10.80;99.90
64396;DHT22;50717;53.360;6.290;2023-11-21T03:52:40;10.10;99.90
64396;DHT22;50717;53.360;6.290;2023-11-21T03:55:05;9.00;99.90
64396;DHT22;50717;53.360;6.290;2023-11-21T03:57:31;8.60;99.90
64396;DHT22;50717;53.360;6.290;2023-11-21T03:59:57;11.40;99.90
64396;DHT22;50717;53.360;6.290;2023-11-21T04:02:22;9.20;99.90
64396;DHT22;50717;53.360;6.290;2023-11-21T04:04:50;10.10;99.90
64396;DHT22;50717;53.360;6.290;2023-11-21T04:07:16;9.30;99.90
64396;DHT22;50717;53.360;6.290;2023-11-21T04:09:42;8.70;99.90
64396;DHT22;50717;53.360;6.290;2023-11-21T04:12:07;8.90;99.90
64396;DHT22;50717;53.360;6.290;2023-11-21T04:14:35;9.30;99.90
64396;DHT22;50717;53.360;6.290;2023-11-21T04:17:01;8.50;99.90
64396;DHT22;50717;53.360;6.290;2023-11-21T04:19:26;10.80;99.90
64396;DHT22;50717;53.360;6.290;2023-11-21T04:21:52;8.90;99.90
64396;DHT22;50717;53.360;6.290;2023-11-21T04:24:18;11.00;99.90
64396;DHT22;50717;53.360;6.290;2023-11-21T04:26:44;9.60;99.90
64396;DHT22;50717;53.360;6.290;2023-11-21T04:29:10;10.70;99.90
64396;DHT22;50717;53.360;6.290;2023-11-21T04:31:35;10.10;99.90
64396;DHT22;50717;53.360;6.290;2023-11-21T04:34:01;8.10;99.90
64396;DHT22;50717;53.360;6.290;2023-11-21T04:36:29;10.70;99.90
64396;DHT22;50717;53.360;6.290;2023-11-21T04:38:56;9.10;99.90
64396;DHT22;50717;53.360;6.290;2023-11-21T04:41:21;11.40;99.90
64396;DHT22;50717;53.360;6.290;2023-11-21T04:43:47;11.10;99.90
64396;DHT22;50717;53.360;6.290;2023-11-21T04:46:13;11.00;99.90
64396;DHT22;50717;53.360;6.290;2023-11-21T04:48:39;8.30;99.90
64396;DHT22;50717;53.360;6.290;2023-11-21T04:51:05;10.80;99.90
64396;DHT22;50717;53.360;6.290;2023-11-21T04:53:30;10.80;99.90
64396;DHT22;50717;53.360;6.290;2023-11-21T04:55:56;10.00;99.90
64396;DHT22;50717;53.360;6.290;2023-11-21T04:58:22;8.10;99.90
64396;DHT22;50717;53.360;6.290;2023-11-21T05:00:47;10.00;99.90
64396;DHT22;50717;53.360;6.290;2023-11-21T05:03:13;8.50;99.90
64396;DHT22;50717;53.360;6.290;2023-11-21T05:05:39;10.30;99.90
64396;DHT22;50717;53.360;6.290;2023-11-21T05:08:04;11.00;99.90
64396;DHT22;50717;53.360;6.290;2023-11-21T05:10:31;11.30;99.90
64396;DHT22;50717;53.360;6.290;2023-11-21T05:12:56;10.40;99.90
64396;DHT22;50717;53.360;6.290;2023-11-21T05:15:22;8.30;99.90
64396;DHT22;50717;53.360;6.290;2023-11-21T05:17:48;9.00;99.90
64396;DHT22;50717;53.360;6.290;2023-11-21T05:20:16;9.60;99.90
64396;DHT22;50717;53.360;6.290;2023-11-21T05:22:49;8.10;99.90
64396;DHT22;50717;53.360;6.290;2023-11-21T05:25:15;8.30;99.90
64396;DHT22;50717;53.360;6.290;2023-11-21T05:27:44;10.30;99.90
64396;DHT22;50717;53.360;6.290;2023-11-21T05:30:10;8.20;99.90
64396;DHT22;50717;53.360;6.290;2023-11-21T05:32:38;8.50;99.90
64396;DHT22;50717;53.360;6.290;2023-11-21T05:35:04;9.00;99.90
64396;DHT22;50717;53.360;6.290;2023-11-21T05:37:35;9.80;99.90
64396;DHT22;50717;53.360;6.290;2023-11-21T05:40:01;9.70;99.90
64396;DHT22;50717;53.360;6.290;2023-11-21T05:42:31;7.60;99.90
64396;DHT22;50717;53.360;6.290;2023-11-21T05:44:57;7.40;99.90
64396;DHT22;50717;53.360;6.290;2023-11-21T05:47:25;9.90;99.90
64396;DHT22;50717;53.360;6.290;2023-11-21T05:49:53;9.20;99.90
64396;DHT22;50717;53.360;6.290;2023-11-21T05:52:19;10.80;99.90
64396;DHT22;50717;53.360;6.290;2023-11-21T05:54:46;8.30;99.90
64396;DHT22;50717;53.360;6.290;2023-11-21T05:57:12;9.90;99.90
64396;DHT22;50717;53.360;6.290;2023-11-21T05:59:38;8.10;99.90
64396;DHT22;50717;53.360;6.290;2023-11-21T06:02:04;10.40;99.90
64396;DHT22;50717;53.360;6.290;2023-11-21T06:04:30;9.30;99.90
64396;DHT22;50717;53.360;6.290;2023-11-21T06:06:56;8.40;99.90
64396;DHT22;50717;53.360;6.290;2023-11-21T06:09:22;8.10;99.90
64396;DHT22;50717;53.360;6.290;2023-11-21T06:11:48;9.20;99.90
64396;DHT22;50717;53.360;6.290;2023-11-21T06:14:14;10.50;99.90
64396;DHT22;50717;53.360;6.290;2023-11-21T06:16:40;9.10;99.90
64396;DHT22;50717;53.360;6.290;2023-11-21T06:19:06;8.30;99.90
64396;DHT22;50717;53.360;6.290;2023-11-21T06:21:31;10.30;99.90
64396;DHT22;50717;53.360;6.290;2023-11-21T06:23:58;8.00;99.90
64396;DHT22;50717;53.360;6.290;2023-11-21T06:26:23;9.00;99.90
64396;DHT22;50717;53.360;6.290;2023-11-21T06:28:51;10.40;99.90
64396;DHT22;50717;53.360;6.290;2023-11-21T06:31:16;8.00;99.90
64396;DHT22;50717;53.360;6.290;2023-11-21T06:33:43;7.50;99.90
64396;DHT22;50717;53.360;6.290;2023-11-21T06:36:09;10.00;99.90
64396;DHT22;50717;53.360;6.290;2023-11-21T06:38:37;7.70;99.90
64396;DHT22;50717;53.360;6.290;2023-11-21T06:41:03;8.00;99.90
64396;DHT22;50717;53.360;6.290;2023-11-21T06:43:29;8.00;99.90
64396;DHT22;50717;53.360;6.290;2023-11-21T06:45:57;9.10;99.90
64396;DHT22;50717;53.360;6.290;2023-11-21T06:48:22;8.10;99.90
64396;DHT22;50717;53.360;6.290;2023-11-21T06:50:48;10.00;99.90
64396;DHT22;50717;53.360;6.290;2023-11-21T06:53:14;8.70;99.90
64396;DHT22;50717;53.360;6.290;2023-11-21T06:55:40;7.30;99.90
64396;DHT22;50717;53.360;6.290;2023-11-21T06:58:05;7.70;99.90
64396;DHT22;50717;53.360;6.290;2023-11-21T07:00:31;7.60;99.90
64396;DHT22;50717;53.360;6.290;2023-11-21T07:02:57;8.00;99.90
64396;DHT22;50717;53.360;6.290;2023-11-21T07:05:23;8.20;99.90
64396;DHT22;50717;53.360;6.290;2023-11-21T07:07:49;8.10;99.90
64396;DHT22;50717;53.360;6.290;2023-11-21T07:10:15;8.30;99.90
64396;DHT22;50717;53.360;6.290;2023-11-21T07:12:41;8.00;99.90
64396;DHT22;50717;53.360;6.290;2023-11-21T07:15:07;9.80;99.90
64396;DHT22;50717;53.360;6.290;2023-11-21T07:17:35;8.10;99.90
64396;DHT22;50717;53.360;6.290;2023-11-21T07:20:02;9.50;99.90
64396;DHT22;50717;53.360;6.290;2023-11-21T07:22:28;9.50;99.90
64396;DHT22;50717;53.360;6.290;2023-11-21T07:24:54;8.20;99.90
64396;DHT22;50717;53.360;6.290;2023-11-21T07:27:22;8.10;99.90
64396;DHT22;50717;53.360;6.290;2023-11-21T07:29:47;8.00;99.90
64396;DHT22;50717;53.360;6.290;2023-11-21T07:32:13;8.30;99.90
64396;DHT22;50717;53.360;6.290;2023-11-21T07:34:40;9.50;99.90
64396;DHT22;50717;53.360;6.290;2023-11-21T07:37:08;8.00;99.90
64396;DHT22;50717;53.360;6.290;2023-11-21T07:39:35;8.60;99.90
64396;DHT22;50717;53.360;6.290;2023-11-21T07:42:02;8.30;99.90
64396;DHT22;50717;53.360;6.290;2023-11-21T07:44:28;9.00;99.90
64396;DHT22;50717;53.360;6.290;2023-11-21T07:46:54;7.90;99.90
64396;DHT22;50717;53.360;6.290;2023-11-21T07:49:23;8.20;99.90
64396;DHT22;50717;53.360;6.290;2023-11-21T07:54:15;9.10;99.90
64396;DHT22;50717;53.360;6.290;2023-11-21T07:56:41;9.20;99.90
64396;DHT22;50717;53.360;6.290;2023-11-21T07:59:07;9.30;99.90
64396;DHT22;50717;53.360;6.290;2023-11-21T08:01:33;8.10;99.90
64396;DHT22;50717;53.360;6.290;2023-11-21T08:03:59;7.90;99.90
64396;DHT22;50717;53.360;6.290;2023-11-21T08:06:31;8.70;99.90
64396;DHT22;50717;53.360;6.290;2023-11-21T08:08:58;9.10;99.90
64396;DHT22;50717;53.360;6.290;2023-11-21T08:11:24;9.00;99.90
64396;DHT22;50717;53.360;6.290;2023-11-21T08:13:50;8.70;99.90
64396;DHT22;50717;53.360;6.290;2023-11-21T08:16:15;8.70;99.90
64396;DHT22;50717;53.360;6.290;2023-11-21T08:18:42;9.30;99.90
64396;DHT22;50717;53.360;6.290;2023-11-21T08:21:08;8.20;99.90
64396;DHT22;50717;53.360;6.290;2023-11-21T08:23:34;7.90;99.90
64396;DHT22;50717;53.360;6.290;2023-11-21T08:26:00;9.30;99.90
64396;DHT22;50717;53.360;6.290;2023-11-21T08:28:27;9.30;99.90
64396;DHT22;50717;53.360;6.290;2023-11-21T08:30:53;8.30;99.90
64396;DHT22;50717;53.360;6.290;2023-11-21T08:33:19;8.50;99.90
64396;DHT22;50717;53.360;6.290;2023-11-21T08:35:45;8.60;99.90
64396;DHT22;50717;53.360;6.290;2023-11-21T08:38:12;9.20;99.90
64396;DHT22;50717;53.360;6.290;2023-11-21T08:40:38;9.00;99.90
64396;DHT22;50717;53.360;6.290;2023-11-21T08:43:03;8.20;99.90
64396;DHT22;50717;53.360;6.290;2023-11-21T08:45:30;8.50;99.90
64396;DHT22;50717;53.360;6.290;2023-11-21T08:47:56;9.00;99.90
64396;DHT22;50717;53.360;6.290;2023-11-21T08:50:22;8.30;99.90
64396;DHT22;50717;53.360;6.290;2023-11-21T08:52:48;8.40;99.90
64396;DHT22;50717;53.360;6.290;2023-11-21T08:55:14;8.70;99.90
64396;DHT22;50717;53.360;6.290;2023-11-21T08:57:40;8.50;99.90
64396;DHT22;50717;53.360;6.290;2023-11-21T09:00:10;9.20;99.90
64396;DHT22;50717;53.360;6.290;2023-11-21T09:02:41;9.20;99.90
64396;DHT22;50717;53.360;6.290;2023-11-21T09:05:08;9.20;99.90
64396;DHT22;50717;53.360;6.290;2023-11-21T09:07:35;8.60;99.90
64396;DHT22;50717;53.360;6.290;2023-11-21T09:10:02;9.20;99.90
64396;DHT22;50717;53.360;6.290;2023-11-21T09:12:28;9.10;99.90
64396;DHT22;50717;53.360;6.290;2023-11-21T09:14:54;9.10;99.90
64396;DHT22;50717;53.360;6.290;2023-11-21T09:17:20;9.00;99.90
64396;DHT22;50717;53.360;6.290;2023-11-21T09:19:45;9.30;99.90
64396;DHT22;50717;53.360;6.290;2023-11-21T09:22:15;8.30;99.90
64396;DHT22;50717;53.360;6.290;2023-11-21T09:24:41;9.00;99.90
64396;DHT22;50717;53.360;6.290;2023-11-21T09:27:08;8.90;99.90
64396;DHT22;50717;53.360;6.290;2023-11-21T09:29:37;9.10;99.90
64396;DHT22;50717;53.360;6.290;2023-11-21T09:32:06;8.80;99.90
64396;DHT22;50717;53.360;6.290;2023-11-21T09:34:38;8.50;99.90
64396;DHT22;50717;53.360;6.290;2023-11-21T09:37:07;8.60;99.90
64396;DHT22;50717;53.360;6.290;2023-11-21T09:39:33;9.40;99.90
64396;DHT22;50717;53.360;6.290;2023-11-21T09:42:12;8.30;99.90
64396;DHT22;50717;53.360;6.290;2023-11-21T09:44:54;8.70;99.90
64396;DHT22;50717;53.360;6.290;2023-11-21T09:47:24;8.90;99.90
64396;DHT22;50717;53.360;6.290;2023-11-21T09:49:50;8.60;99.90
64396;DHT22;50717;53.360;6.290;2023-11-21T09:52:25;9.30;99.90
64396;DHT22;50717;53.360;6.290;2023-11-21T09:54:52;9.00;99.90
64396;DHT22;50717;53.360;6.290;2023-11-21T09:57:23;9.10;99.90
64396;DHT22;50717;53.360;6.290;2023-11-21T09:59:53;9.10;99.90
64396;DHT22;50717;53.360;6.290;2023-11-21T10:02:28;9.10;99.90
64396;DHT22;50717;53.360;6.290;2023-11-21T10:04:55;9.50;99.90
64396;DHT22;50717;53.360;6.290;2023-11-21T10:07:22;9.40;99.90
64396;DHT22;50717;53.360;6.290;2023-11-21T10:09:51;8.80;99.90
64396;DHT22;50717;53.360;6.290;2023-11-21T10:12:16;8.80;99.90
64396;DHT22;50717;53.360;6.290;2023-11-21T10:14:43;9.10;99.90
64396;DHT22;50717;53.360;6.290;2023-11-21T10:17:12;9.00;99.90
64396;DHT22;50717;53.360;6.290;2023-11-21T10:19:41;9.10;99.90
64396;DHT22;50717;53.360;6.290;2023-11-21T10:22:08;8.60;99.90
64396;DHT22;50717;53.360;6.290;2023-11-21T10:24:34;9.00;99.90
64396;DHT22;50717;53.360;6.290;2023-11-21T10:27:00;8.60;99.90
64396;DHT22;50717;53.360;6.290;2023-11-21T10:29:29;8.90;99.90
64396;DHT22;50717;53.360;6.290;2023-11-21T10:31:55;8.70;99.90
64396;DHT22;50717;53.360;6.290;2023-11-21T10:34:24;8.60;99.90
64396;DHT22;50717;53.360;6.290;2023-11-21T10:36:49;8.80;99.90
64396;DHT22;50717;53.360;6.290;2023-11-21T10:39:22;8.80;99.90
64396;DHT22;50717;53.360;6.290;2023-11-21T10:41:49;8.50;99.90
64396;DHT22;50717;53.360;6.290;2023-11-21T10:44:19;8.60;99.90
64396;DHT22;50717;53.360;6.290;2023-11-21T10:46:56;8.90;99.90
64396;DHT22;50717;53.360;6.290;2023-11-21T10:49:26;8.70;99.90
64396;DHT22;50717;53.360;6.290;2023-11-21T10:51:53;8.50;99.90
64396;DHT22;50717;53.360;6.290;2023-11-21T10:54:20;8.30;99.90
64396;DHT22;50717;53.360;6.290;2023-11-21T10:56:49;8.40;99.90
64396;DHT22;50717;53.360;6.290;2023-11-21T10:59:17;8.60;99.90
64396;DHT22;50717;53.360;6.290;2023-11-21T11:01:45;8.90;99.90
64396;DHT22;50717;53.360;6.290;2023-11-21T11:04:14;9.00;99.90
64396;DHT22;50717;53.360;6.290;2023-11-21T11:07:05;8.50;99.90
64396;DHT22;50717;53.360;6.290;2023-11-21T11:09:35;8.90;99.90
64396;DHT22;50717;53.360;6.290;2023-11-21T11:12:04;9.40;99.90
64396;DHT22;50717;53.360;6.290;2023-11-21T11:14:30;9.70;99.90
64396;DHT22;50717;53.360;6.290;2023-11-21T11:16:58;9.40;99.90
64396;DHT22;50717;53.360;6.290;2023-11-21T11:19:25;9.30;99.90
64396;DHT22;50717;53.360;6.290;2023-11-21T11:22:13;9.70;99.90
64396;DHT22;50717;53.360;6.290;2023-11-21T11:33:48;9.70;97.10
64396;DHT22;50717;53.360;6.290;2023-11-21T11:36:31;9.50;98.10
64396;DHT22;50717;53.360;6.290;2023-11-21T11:38:59;9.40;99.10
64396;DHT22;50717;53.360;6.290;2023-11-21T11:41:29;9.70;99.90
64396;DHT22;50717;53.360;6.290;2023-11-21T11:43:58;9.60;98.80
64396;DHT22;50717;53.360;6.290;2023-11-21T11:46:45;9.60;97.00
64396;DHT22;50717;53.360;6.290;2023-11-21T11:49:24;9.30;95.60
64396;DHT22;50717;53.360;6.290;2023-11-21T11:52:55;9.60;94.80
64396;DHT22;50717;53.360;6.290;2023-11-21T11:54:55;9.60;94.30
64396;DHT22;50717;53.360;6.290;2023-11-21T11:57:24;9.50;92.50
64396;DHT22;50717;53.360;6.290;2023-11-21T12:00:18;10.00;94.70
64396;DHT22;50717;53.360;6.290;2023-11-21T12:02:52;9.90;94.00
64396;DHT22;50717;53.360;6.290;2023-11-21T12:05:20;9.30;94.40
64396;DHT22;50717;53.360;6.290;2023-11-21T12:10:17;9.40;92.70
64396;DHT22;50717;53.360;6.290;2023-11-21T12:12:47;9.70;94.40
64396;DHT22;50717;53.360;6.290;2023-11-21T12:15:14;9.40;92.50
64396;DHT22;50717;53.360;6.290;2023-11-21T12:17:43;9.50;94.80
64396;DHT22;50717;53.360;6.290;2023-11-21T12:20:11;9.20;95.80
64396;DHT22;50717;53.360;6.290;2023-11-21T12:22:46;8.80;98.60
64396;DHT22;50717;53.360;6.290;2023-11-21T12:25:19;8.70;99.90
64396;DHT22;50717;53.360;6.290;2023-11-21T12:27:50;8.90;99.90
64396;DHT22;50717;53.360;6.290;2023-11-21T12:30:21;8.60;99.90
64396;DHT22;50717;53.360;6.290;2023-11-21T12:32:54;8.80;99.90
64396;DHT22;50717;53.360;6.290;2023-11-21T12:35:23;8.80;99.90
64396;DHT22;50717;53.360;6.290;2023-11-21T12:37:49;8.80;99.90
64396;DHT22;50717;53.360;6.290;2023-11-21T12:40:16;9.40;99.90
64396;DHT22;50717;53.360;6.290;2023-11-21T12:42:44;9.60;98.80
64396;DHT22;50717;53.360;6.290;2023-11-21T12:47:46;9.40;98.90
64396;DHT22;50717;53.360;6.290;2023-11-21T12:50:12;9.80;97.30
64396;DHT22;50717;53.360;6.290;2023-11-21T12:52:44;9.40;94.80
64396;DHT22;50717;53.360;6.290;2023-11-21T12:55:20;9.70;94.30
64396;DHT22;50717;53.360;6.290;2023-11-21T12:57:54;9.20;92.30
64396;DHT22;50717;53.360;6.290;2023-11-21T13:00:27;9.30;91.40
64396;DHT22;50717;53.360;6.290;2023-11-21T13:02:56;9.40;92.80
64396;DHT22;50717;53.360;6.290;2023-11-21T13:05:38;9.40;93.50
64396;DHT22;50717;53.360;6.290;2023-11-21T13:08:06;9.40;94.50
64396;DHT22;50717;53.360;6.290;2023-11-21T13:10:39;9.90;96.60
64396;DHT22;50717;53.360;6.290;2023-11-21T13:13:06;9.10;97.70
64396;DHT22;50717;53.360;6.290;2023-11-21T13:15:35;9.10;97.20
64396;DHT22;50717;53.360;6.290;2023-11-21T13:18:04;8.90;98.10
64396;DHT22;50717;53.360;6.290;2023-11-21T13:20:29;8.90;98.10
64396;DHT22;50717;53.360;6.290;2023-11-21T13:22:58;8.80;99.90
64396;DHT22;50717;53.360;6.290;2023-11-21T13:25:25;8.90;99.90
64396;DHT22;50717;53.360;6.290;2023-11-21T13:28:00;8.70;99.90
64396;DHT22;50717;53.360;6.290;2023-11-21T13:30:28;8.70;99.90
64396;DHT22;50717;53.360;6.290;2023-11-21T13:35:28;8.50;99.90
64396;DHT22;50717;53.360;6.290;2023-11-21T13:38:04;8.70;99.90
64396;DHT22;50717;53.360;6.290;2023-11-21T13:40:31;8.60;99.90
64396;DHT22;50717;53.360;6.290;2023-11-21T13:42:57;8.50;99.90
64396;DHT22;50717;53.360;6.290;2023-11-21T13:45:25;8.10;99.90
64396;DHT22;50717;53.360;6.290;2023-11-21T13:47:53;8.10;99.90
64396;DHT22;50717;53.360;6.290;2023-11-21T13:50:26;8.40;99.90
64396;DHT22;50717;53.360;6.290;2023-11-21T13:52:58;8.50;99.90
64396;DHT22;50717;53.360;6.290;2023-11-21T13:55:29;8.30;99.90
64396;DHT22;50717;53.360;6.290;2023-11-21T14:00:21;8.20;99.90
64396;DHT22;50717;53.360;6.290;2023-11-21T14:03:05;8.10;99.90
64396;DHT22;50717;53.360;6.290;2023-11-21T14:05:36;8.10;99.90
64396;DHT22;50717;53.360;6.290;2023-11-21T14:08:02;8.10;99.90
64396;DHT22;50717;53.360;6.290;2023-11-21T14:10:31;8.20;99.90
64396;DHT22;50717;53.360;6.290;2023-11-21T14:13:10;8.10;99.90
64396;DHT22;50717;53.360;6.290;2023-11-21T14:15:39;8.00;99.90
64396;DHT22;50717;53.360;6.290;2023-11-21T14:18:09;8.20;99.90
64396;DHT22;50717;53.360;6.290;2023-11-21T14:20:39;8.20;99.80
64396;DHT22;50717;53.360;6.290;2023-11-21T14:23:05;8.20;99.40
64396;DHT22;50717;53.360;6.290;2023-11-21T14:25:35;8.20;99.90
64396;DHT22;50717;53.360;6.290;2023-11-21T14:28:05;8.30;99.90
64396;DHT22;50717;53.360;6.290;2023-11-21T14:30:34;8.50;99.90
64396;DHT22;50717;53.360;6.290;2023-11-21T14:33:04;8.20;99.90
64396;DHT22;50717;53.360;6.290;2023-11-21T14:35:30;8.00;99.90
64396;DHT22;50717;53.360;6.290;2023-11-21T14:37:59;8.20;99.90
64396;DHT22;50717;53.360;6.290;2023-11-21T14:40:26;8.00;99.90
64396;DHT22;50717;53.360;6.290;2023-11-21T14:42:54;8.40;99.90
64396;DHT22;50717;53.360;6.290;2023-11-21T14:45:22;8.20;99.90
64396;DHT22;50717;53.360;6.290;2023-11-21T14:47:51;8.10;99.90
64396;DHT22;50717;53.360;6.290;2023-11-21T14:50:43;8.00;99.90
64396;DHT22;50717;53.360;6.290;2023-11-21T14:53:10;8.00;99.90
64396;DHT22;50717;53.360;6.290;2023-11-21T14:55:39;7.80;99.90
64396;DHT22;50717;53.360;6.290;2023-11-21T14:58:19;8.00;99.90
64396;DHT22;50717;53.360;6.290;2023-11-21T15:00:58;7.80;99.90
64396;DHT22;50717;53.360;6.290;2023-11-21T15:03:28;7.50;99.90
64396;DHT22;50717;53.360;6.290;2023-11-21T15:05:57;7.50;99.90
64396;DHT22;50717;53.360;6.290;2023-11-21T15:08:23;7.80;99.90
64396;DHT22;50717;53.360;6.290;2023-11-21T15:10:56;7.90;99.90
64396;DHT22;50717;53.360;6.290;2023-11-21T15:13:22;7.90;99.90
64396;DHT22;50717;53.360;6.290;2023-11-21T15:15:53;7.80;99.90
64396;DHT22;50717;53.360;6.290;2023-11-21T15:18:21;7.30;99.90
64396;DHT22;50717;53.360;6.290;2023-11-21T15:20:47;7.40;99.90
64396;DHT22;50717;53.360;6.290;2023-11-21T15:23:13;7.80;99.90
64396;DHT22;50717;53.360;6.290;2023-11-21T15:25:39;7.80;99.90
64396;DHT22;50717;53.360;6.290;2023-11-21T15:28:05;7.40;99.90
64396;DHT22;50717;53.360;6.290;2023-11-21T15:30:32;8.00;99.90
64396;DHT22;50717;53.360;6.290;2023-11-21T15:32:58;7.90;99.90
64396;DHT22;50717;53.360;6.290;2023-11-21T15:35:24;7.60;99.90
64396;DHT22;50717;53.360;6.290;2023-11-21T15:37:53;7.80;99.90
64396;DHT22;50717;53.360;6.290;2023-11-21T15:40:18;7.60;99.90
64396;DHT22;50717;53.360;6.290;2023-11-21T15:42:44;7.40;99.90
64396;DHT22;50717;53.360;6.290;2023-11-21T15:45:10;7.90;99.90
64396;DHT22;50717;53.360;6.290;2023-11-21T15:47:36;7.50;99.90
64396;DHT22;50717;53.360;6.290;2023-11-21T15:50:01;7.40;99.90
64396;DHT22;50717;53.360;6.290;2023-11-21T15:52:29;7.70;99.90
64396;DHT22;50717;53.360;6.290;2023-11-21T15:54:55;7.10;99.90
64396;DHT22;50717;53.360;6.290;2023-11-21T15:57:21;7.60;99.90
64396;DHT22;50717;53.360;6.290;2023-11-21T15:59:47;7.60;99.90
64396;DHT22;50717;53.360;6.290;2023-11-21T16:02:13;7.30;99.90
64396;DHT22;50717;53.360;6.290;2023-11-21T16:04:41;7.70;99.90
64396;DHT22;50717;53.360;6.290;2023-11-21T16:07:08;7.40;99.90